Time;durP1;ratioP1;P1;durP2;ratioP2;P2;SDS_P1;SDS_P2;PMS_P1;PMS_P2;Temp;Humidity;BMP_temperature;BMP_pressure;BME280_temperature;BME280_humidity;BME280_pressure;Samples;Min_cycle;Max_cycle;Signal;HPM_P1;HPM_P2
2023/09/16 00:00:08;;;;;;;1999.90;999.90;;;12.70;99.90;;;;;;5051261;28;20090;-65
2023/09/16 00:02:35;;;;;;;1999.90;999.90;;;12.60;99.90;;;;;;5050330;28;20052;-66
2023/09/16 00:05:00;;;;;;;1999.90;999.90;;;12.60;99.90;;;;;;5055907;28;21821;-66
2023/09/16 00:07:27;;;;;;;1999.90;999.90;;;12.60;99.90;;;;;;5052417;28;20128;-65
2023/09/16 00:09:56;;;;;;;1999.90;999.90;;;12.50;99.90;;;;;;5051422;28;20587;-65
2023/09/16 00:12:25;;;;;;;1999.90;999.90;;;12.40;99.90;;;;;;5052485;28;20051;-65
2023/09/16 00:14:51;;;;;;;1999.90;999.90;;;12.40;99.90;;;;;;5047567;28;20055;-65
2023/09/16 00:17:17;;;;;;;1999.90;999.90;;;12.40;99.90;;;;;;5052080;28;20098;-65
2023/09/16 00:19:43;;;;;;;1999.90;999.90;;;12.40;99.90;;;;;;5048462;28;21286;-65
2023/09/16 00:22:10;;;;;;;1999.90;999.90;;;12.30;99.90;;;;;;5050885;28;20194;-66
2023/09/16 00:24:40;;;;;;;1999.90;999.90;;;12.30;99.90;;;;;;5052674;28;20041;-65
2023/09/16 00:27:07;;;;;;;1999.90;999.90;;;12.30;99.90;;;;;;5053518;28;20044;-65
2023/09/16 00:29:33;;;;;;;1999.90;999.90;;;12.20;99.90;;;;;;5044753;28;20045;-65
2023/09/16 00:32:01;;;;;;;1999.90;999.90;;;12.20;99.90;;;;;;5053974;28;20041;-65
2023/09/16 00:34:27;;;;;;;1999.90;999.90;;;12.10;99.90;;;;;;5056464;28;20040;-65
2023/09/16 00:36:53;;;;;;;1999.90;999.90;;;12.10;99.90;;;;;;5046671;28;20102;-65
2023/09/16 00:39:18;;;;;;;1999.90;999.90;;;12.10;99.90;;;;;;5051235;28;20040;-65
2023/09/16 00:41:44;;;;;;;1999.90;999.90;;;12.00;99.90;;;;;;5062708;28;20052;-66
2023/09/16 00:44:10;;;;;;;1999.90;999.90;;;12.00;99.90;;;;;;5062751;28;20044;-66
2023/09/16 00:46:36;;;;;;;1999.90;999.90;;;11.90;99.90;;;;;;5054246;28;21119;-65
2023/09/16 00:49:03;;;;;;;1999.90;999.90;;;11.90;99.90;;;;;;5033299;28;20033;-66
2023/09/16 00:51:28;;;;;;;1999.90;999.90;;;11.80;99.90;;;;;;5048708;28;20045;-65
2023/09/16 00:53:54;;;;;;;1999.90;999.90;;;11.80;99.90;;;;;;5052372;28;20055;-65
2023/09/16 00:56:20;;;;;;;1999.90;999.90;;;11.80;99.90;;;;;;5044249;28;20045;-65
2023/09/16 00:58:46;;;;;;;1999.90;999.90;;;11.80;99.90;;;;;;5048986;28;20040;-65
2023/09/16 01:01:14;;;;;;;1999.90;999.90;;;11.70;99.90;;;;;;5052371;28;20041;-66
2023/09/16 01:03:41;;;;;;;1999.90;999.90;;;11.80;99.90;;;;;;5048940;28;20052;-65
2023/09/16 01:06:08;;;;;;;1999.90;999.90;;;11.80;99.90;;;;;;5034258;28;20056;-66
2023/09/16 01:08:37;;;;;;;1999.90;999.90;;;11.70;99.90;;;;;;5049290;28;20045;-65
2023/09/16 01:11:05;;;;;;;1999.90;999.90;;;11.70;99.90;;;;;;5056880;28;20537;-65
2023/09/16 01:13:33;;;;;;;1999.90;999.90;;;11.70;99.90;;;;;;5042201;28;20045;-65
2023/09/16 01:16:32;;;;;;;1999.90;999.90;;;11.70;99.90;;;;;;5059523;28;20028;-65
2023/09/16 01:19:13;;;;;;;1999.90;999.90;;;11.70;99.90;;;;;;5055528;28;20044;-65
2023/09/16 01:21:39;;;;;;;1999.90;999.90;;;11.70;99.90;;;;;;5037452;28;20040;-65
2023/09/16 01:24:19;;;;;;;1999.90;999.90;;;11.70;99.90;;;;;;5048718;28;20525;-65
2023/09/16 01:26:46;;;;;;;1999.90;999.90;;;11.60;99.90;;;;;;5032548;28;20076;-65
2023/09/16 01:29:13;;;;;;;1999.90;999.90;;;11.70;99.90;;;;;;5046545;28;20044;-65
2023/09/16 01:31:40;;;;;;;1999.90;999.90;;;11.60;99.90;;;;;;5062978;28;20052;-66
2023/09/16 01:34:27;;;;;;;1999.90;999.90;;;11.60;99.90;;;;;;5046088;28;20106;-65
2023/09/16 01:36:57;;;;;;;1999.90;999.90;;;11.60;99.90;;;;;;5045677;28;20048;-65
2023/09/16 01:39:24;;;;;;;1999.90;999.90;;;11.60;99.90;;;;;;5052421;28;20049;-66
2023/09/16 01:41:52;;;;;;;1999.90;999.90;;;11.50;99.90;;;;;;5052933;28;20048;-65
2023/09/16 01:44:18;;;;;;;1999.90;999.90;;;11.50;99.90;;;;;;5051141;28;20405;-66
2023/09/16 01:46:43;;;;;;;1999.90;999.90;;;11.50;99.90;;;;;;5047532;28;20051;-66
2023/09/16 01:49:09;;;;;;;1999.90;999.90;;;11.50;99.90;;;;;;5050644;28;20138;-65
2023/09/16 01:51:35;;;;;;;1999.90;999.90;;;11.50;99.90;;;;;;5054596;28;20041;-65
2023/09/16 01:54:00;;;;;;;1999.90;999.90;;;11.50;99.90;;;;;;5056329;28;20126;-65
2023/09/16 01:56:26;;;;;;;1999.90;999.90;;;11.50;99.90;;;;;;5055307;28;20066;-65
2023/09/16 01:58:52;;;;;;;1999.90;999.90;;;11.50;99.90;;;;;;5045089;28;20036;-65
2023/09/16 02:01:17;;;;;;;1999.90;999.90;;;11.50;99.90;;;;;;5049130;28;20137;-65
2023/09/16 02:03:43;;;;;;;1999.90;999.90;;;11.60;99.90;;;;;;5047258;28;20446;-65
2023/09/16 02:06:09;;;;;;;1999.90;999.90;;;11.50;99.90;;;;;;5053574;28;20057;-65
2023/09/16 02:08:34;;;;;;;1999.90;999.90;;;11.50;99.90;;;;;;5063414;28;20508;-65
2023/09/16 02:11:01;;;;;;;1999.90;999.90;;;11.50;99.90;;;;;;5051635;28;20124;-65
2023/09/16 02:13:26;;;;;;;1999.90;999.90;;;11.50;99.90;;;;;;5045563;28;20048;-66
2023/09/16 02:15:52;;;;;;;1999.90;999.90;;;11.50;99.90;;;;;;5063567;28;20048;-65
2023/09/16 02:18:18;;;;;;;1999.90;999.90;;;11.50;99.90;;;;;;5047913;28;20044;-65
2023/09/16 02:20:43;;;;;;;1999.90;999.90;;;11.50;99.90;;;;;;5050539;28;20047;-65
2023/09/16 02:23:09;;;;;;;1999.90;999.90;;;11.40;99.90;;;;;;5062023;28;20124;-65
2023/09/16 02:25:35;;;;;;;1999.90;999.90;;;11.40;99.90;;;;;;5048658;28;20043;-65
2023/09/16 02:28:01;;;;;;;1999.90;999.90;;;11.40;99.90;;;;;;5047172;28;20033;-65
2023/09/16 02:30:27;;;;;;;1999.90;999.90;;;11.40;99.90;;;;;;5048889;28;20033;-65
2023/09/16 02:32:53;;;;;;;1999.90;999.90;;;11.40;99.90;;;;;;5053737;28;20222;-65
2023/09/16 02:35:18;;;;;;;1999.90;999.90;;;11.40;99.90;;;;;;5048939;28;20687;-65
2023/09/16 02:37:44;;;;;;;1999.90;999.90;;;11.40;99.90;;;;;;5051091;28;20082;-65
2023/09/16 02:40:10;;;;;;;1999.90;999.90;;;11.40;99.90;;;;;;5051776;28;20040;-65
2023/09/16 02:42:35;;;;;;;1999.90;999.90;;;11.40;99.90;;;;;;5046846;28;20041;-65
2023/09/16 02:45:01;;;;;;;1999.90;999.90;;;11.40;99.90;;;;;;5052880;28;20037;-65
2023/09/16 02:47:27;;;;;;;1999.90;999.90;;;11.40;99.90;;;;;;5036668;28;20562;-65
2023/09/16 02:49:52;;;;;;;1999.90;999.90;;;11.40;99.90;;;;;;5043749;28;20396;-66
2023/09/16 02:52:20;;;;;;;1999.90;999.90;;;11.30;99.90;;;;;;5050264;28;20066;-66
2023/09/16 02:54:45;;;;;;;1999.90;999.90;;;11.30;99.90;;;;;;5057046;28;20475;-66
2023/09/16 02:57:11;;;;;;;1999.90;999.90;;;11.30;99.90;;;;;;5052538;28;20070;-66
2023/09/16 02:59:37;;;;;;;1999.90;999.90;;;11.20;99.90;;;;;;5047007;28;20072;-65
2023/09/16 03:02:03;;;;;;;1999.90;999.90;;;11.30;99.90;;;;;;5045697;28;20605;-65
2023/09/16 03:04:29;;;;;;;1999.90;999.90;;;11.30;99.90;;;;;;5037358;28;20059;-65
2023/09/16 03:06:55;;;;;;;1999.90;999.90;;;11.20;99.90;;;;;;5046201;28;20053;-66
2023/09/16 03:09:20;;;;;;;1999.90;999.90;;;11.20;99.90;;;;;;5054896;28;20469;-66
2023/09/16 03:11:46;;;;;;;1999.90;999.90;;;11.20;99.90;;;;;;5050886;28;20078;-66
2023/09/16 03:14:12;;;;;;;1999.90;999.90;;;11.20;99.90;;;;;;5036263;28;20089;-65
2023/09/16 03:16:38;;;;;;;1999.90;999.90;;;11.10;99.90;;;;;;5031719;28;20328;-65
2023/09/16 03:19:03;;;;;;;1999.90;999.90;;;11.10;99.90;;;;;;5047811;28;20494;-66
2023/09/16 03:21:29;;;;;;;1999.90;999.90;;;11.10;99.90;;;;;;5038304;28;20049;-65
2023/09/16 03:23:55;;;;;;;1999.90;999.90;;;11.00;99.90;;;;;;5035185;28;20110;-65
2023/09/16 03:26:21;;;;;;;1999.90;999.90;;;11.00;99.90;;;;;;5059773;28;20516;-65
2023/09/16 03:28:47;;;;;;;1999.90;999.90;;;10.90;99.90;;;;;;5048205;28;20361;-66
2023/09/16 03:31:13;;;;;;;1999.90;999.90;;;10.90;99.90;;;;;;5062757;28;20478;-66
2023/09/16 03:33:39;;;;;;;1999.90;999.90;;;10.80;99.90;;;;;;5054957;28;20518;-66
2023/09/16 03:36:06;;;;;;;1999.90;999.90;;;10.80;99.90;;;;;;5050248;28;20094;-65
2023/09/16 03:38:33;;;;;;;1999.90;999.90;;;10.80;99.90;;;;;;5052941;28;20135;-65
2023/09/16 03:40:59;;;;;;;1999.90;999.90;;;10.80;99.90;;;;;;5049601;28;20049;-65
2023/09/16 03:43:25;;;;;;;1999.90;999.90;;;10.80;99.90;;;;;;5047971;28;20044;-65
2023/09/16 03:45:50;;;;;;;1999.90;999.90;;;10.80;99.90;;;;;;5052398;28;20036;-65
2023/09/16 03:48:16;;;;;;;1999.90;999.90;;;10.80;99.90;;;;;;5041089;28;20052;-66
2023/09/16 03:50:42;;;;;;;1999.90;999.90;;;10.90;99.90;;;;;;5059430;28;20489;-66
2023/09/16 03:53:09;;;;;;;1999.90;999.90;;;10.90;99.90;;;;;;5037847;28;20103;-66
2023/09/16 03:55:35;;;;;;;1999.90;999.90;;;10.90;99.90;;;;;;5054175;28;20056;-66
2023/09/16 03:58:01;;;;;;;1999.90;999.90;;;10.80;99.90;;;;;;5049461;28;20041;-66
2023/09/16 04:00:27;;;;;;;1999.90;999.90;;;10.90;99.90;;;;;;5049721;28;20124;-65
2023/09/16 04:02:52;;;;;;;1999.90;999.90;;;10.90;99.90;;;;;;5049349;28;20048;-65
2023/09/16 04:05:18;;;;;;;1999.90;999.90;;;10.90;99.90;;;;;;5048528;28;20458;-66
2023/09/16 04:07:44;;;;;;;1999.90;999.90;;;10.80;99.90;;;;;;5053395;28;20037;-66
2023/09/16 04:10:09;;;;;;;1999.90;999.90;;;10.80;99.90;;;;;;5048464;28;20037;-66
2023/09/16 04:12:36;;;;;;;1999.90;999.90;;;10.80;99.90;;;;;;5037065;28;20424;-66
2023/09/16 04:15:02;;;;;;;1999.90;999.90;;;10.70;99.90;;;;;;5054973;28;20398;-66
2023/09/16 04:17:28;;;;;;;1999.90;999.90;;;10.70;99.90;;;;;;5055845;28;20059;-65
2023/09/16 04:19:53;;;;;;;1999.90;999.90;;;10.70;99.90;;;;;;5034541;28;20102;-66
2023/09/16 04:22:19;;;;;;;1999.90;999.90;;;10.70;99.90;;;;;;5047727;28;20068;-66
2023/09/16 04:24:46;;;;;;;1999.90;999.90;;;10.70;99.90;;;;;;5050843;28;20044;-66
2023/09/16 04:27:11;;;;;;;1999.90;999.90;;;10.70;99.90;;;;;;5050334;28;20365;-66
2023/09/16 04:29:37;;;;;;;1999.90;999.90;;;10.70;99.90;;;;;;5055621;28;20039;-65
2023/09/16 04:32:03;;;;;;;1999.90;999.90;;;10.70;99.90;;;;;;5055807;28;20042;-65
2023/09/16 04:34:29;;;;;;;1999.90;999.90;;;10.70;99.90;;;;;;5040621;28;20095;-65
2023/09/16 04:36:54;;;;;;;1999.90;999.90;;;10.70;99.90;;;;;;5052661;28;20473;-65
2023/09/16 04:39:23;;;;;;;1999.90;999.90;;;10.70;99.90;;;;;;5055354;28;20423;-65
2023/09/16 04:41:53;;;;;;;1999.90;999.90;;;10.60;99.90;;;;;;5050935;28;20464;-66
2023/09/16 04:44:19;;;;;;;1999.90;999.90;;;10.60;99.90;;;;;;5036135;28;20049;-66
2023/09/16 04:46:46;;;;;;;1999.90;999.90;;;10.60;99.90;;;;;;5049678;28;20047;-66
2023/09/16 04:49:12;;;;;;;1999.90;999.90;;;10.60;99.90;;;;;;5052514;28;20070;-66
2023/09/16 04:51:38;;;;;;;1999.90;999.90;;;10.60;99.90;;;;;;5050637;28;20040;-66
2023/09/16 04:54:05;;;;;;;1999.90;999.90;;;10.60;99.90;;;;;;5052537;28;20083;-66
2023/09/16 04:56:30;;;;;;;1999.90;999.90;;;10.50;99.90;;;;;;5061918;28;20044;-65
2023/09/16 04:58:56;;;;;;;1999.90;999.90;;;10.50;99.90;;;;;;5043460;28;20041;-66
2023/09/16 05:01:21;;;;;;;1999.90;999.90;;;10.50;99.90;;;;;;5064187;28;20048;-65
2023/09/16 05:03:47;;;;;;;1999.90;999.90;;;10.50;99.90;;;;;;5046680;28;20136;-66
2023/09/16 05:06:13;;;;;;;1999.90;999.90;;;10.50;99.90;;;;;;5055084;28;20056;-66
2023/09/16 05:08:38;;;;;;;1999.90;999.90;;;10.40;99.90;;;;;;5062081;28;20548;-65
2023/09/16 05:11:04;;;;;;;1999.90;999.90;;;10.40;99.90;;;;;;5057474;28;20416;-66
2023/09/16 05:13:30;;;;;;;1999.90;999.90;;;10.40;99.90;;;;;;5048207;28;20124;-66
2023/09/16 05:15:55;;;;;;;1999.90;999.90;;;10.40;99.90;;;;;;5052337;28;20117;-66
2023/09/16 05:18:21;;;;;;;1999.90;999.90;;;10.40;99.90;;;;;;5053265;28;20041;-66
2023/09/16 05:20:50;;;;;;;1999.90;999.90;;;10.40;99.90;;;;;;5048126;28;20044;-66
2023/09/16 05:23:16;;;;;;;1999.90;999.90;;;10.40;99.90;;;;;;5062130;28;20463;-66
2023/09/16 05:25:46;;;;;;;1999.90;999.90;;;10.40;99.90;;;;;;5047996;28;20075;-65
2023/09/16 05:28:12;;;;;;;1999.90;999.90;;;10.40;99.90;;;;;;5046942;28;20047;-66
2023/09/16 05:30:38;;;;;;;1999.90;999.90;;;10.30;99.90;;;;;;5054178;28;20029;-66
2023/09/16 05:33:03;;;;;;;1999.90;999.90;;;10.30;99.90;;;;;;5053891;28;21146;-66
2023/09/16 05:35:29;;;;;;;1999.90;999.90;;;10.30;99.90;;;;;;5052426;28;20102;-66
2023/09/16 05:37:54;;;;;;;1999.90;999.90;;;10.40;99.90;;;;;;5051031;28;20040;-66
2023/09/16 05:40:20;;;;;;;1999.90;999.90;;;10.40;99.90;;;;;;5050696;28;20094;-66
2023/09/16 05:42:46;;;;;;;1999.90;999.90;;;10.40;99.90;;;;;;5049042;28;20033;-66
2023/09/16 05:45:11;;;;;;;1999.90;999.90;;;10.40;99.90;;;;;;5033360;28;20550;-66
2023/09/16 05:47:37;;;;;;;1999.90;999.90;;;10.50;99.90;;;;;;5049711;28;20509;-66
2023/09/16 05:50:03;;;;;;;1999.90;999.90;;;10.50;99.90;;;;;;5057979;28;20119;-66
2023/09/16 05:52:28;;;;;;;1999.90;999.90;;;10.60;99.90;;;;;;5057603;28;20045;-66
2023/09/16 05:54:54;;;;;;;1999.90;999.90;;;10.60;99.90;;;;;;5043814;28;20072;-66
2023/09/16 05:57:20;;;;;;;1999.90;999.90;;;10.70;99.90;;;;;;5032296;28;20159;-66
2023/09/16 05:59:45;;;;;;;1999.90;999.90;;;10.70;99.90;;;;;;5047081;28;20090;-66
2023/09/16 06:02:11;;;;;;;1999.90;999.90;;;10.80;99.90;;;;;;5052597;28;20090;-66
2023/09/16 06:04:37;;;;;;;1999.90;999.90;;;10.80;99.90;;;;;;5049788;28;20124;-66
2023/09/16 06:07:02;;;;;;;1999.90;999.90;;;10.80;99.90;;;;;;5050543;28;20075;-66
2023/09/16 06:09:28;;;;;;;1999.90;999.90;;;10.80;99.90;;;;;;5048183;28;20512;-66
2023/09/16 06:11:53;;;;;;;1999.90;999.90;;;10.90;99.90;;;;;;5032231;28;20036;-65
2023/09/16 06:14:19;;;;;;;1999.90;999.90;;;10.90;99.90;;;;;;5047176;28;20049;-66
2023/09/16 06:16:45;;;;;;;1999.90;999.90;;;11.00;99.90;;;;;;5051270;28;20079;-66
2023/09/16 06:19:10;;;;;;;1999.90;999.90;;;11.00;99.90;;;;;;5055137;28;20055;-66
2023/09/16 06:21:36;;;;;;;1999.90;999.90;;;11.10;99.90;;;;;;5051877;28;20120;-66
2023/09/16 06:24:02;;;;;;;1999.90;999.90;;;11.20;99.90;;;;;;5045648;28;20043;-66
2023/09/16 06:26:28;;;;;;;1999.90;999.90;;;11.20;99.90;;;;;;5041917;28;20041;-66
2023/09/16 06:28:54;;;;;;;1999.90;999.90;;;11.30;99.90;;;;;;5051317;28;20546;-66
2023/09/16 06:31:19;;;;;;;1999.90;999.90;;;11.40;99.90;;;;;;5048292;28;20489;-66
2023/09/16 06:33:45;;;;;;;1999.90;999.90;;;11.50;99.90;;;;;;5048534;28;20116;-66
2023/09/16 06:36:10;;;;;;;1999.90;999.90;;;11.60;99.90;;;;;;5048088;28;20141;-66
2023/09/16 06:38:36;;;;;;;1999.90;999.90;;;11.70;99.90;;;;;;5049485;28;20079;-66
2023/09/16 06:41:02;;;;;;;1999.90;999.90;;;11.80;99.90;;;;;;5056403;28;20580;-66
2023/09/16 06:43:27;;;;;;;1999.90;999.90;;;11.90;99.90;;;;;;5042457;28;20120;-66
2023/09/16 06:45:53;;;;;;;1999.90;999.90;;;12.10;99.90;;;;;;5051096;28;20034;-66
2023/09/16 06:48:18;;;;;;;1999.90;999.90;;;12.20;99.90;;;;;;5049612;28;20116;-66
2023/09/16 06:50:44;;;;;;;1999.90;999.90;;;12.30;99.90;;;;;;5033933;28;20393;-66
2023/09/16 06:53:10;;;;;;;1999.90;999.90;;;12.40;99.90;;;;;;5042815;28;20040;-66
2023/09/16 06:55:35;;;;;;;1999.90;999.90;;;12.60;99.90;;;;;;5031907;28;20128;-66
2023/09/16 06:58:04;;;;;;;1999.90;999.90;;;12.70;99.90;;;;;;5051695;28;20446;-66
2023/09/16 07:00:30;;;;;;;1999.90;999.90;;;12.80;99.90;;;;;;5057137;28;20048;-66
2023/09/16 07:02:58;;;;;;;1999.90;999.90;;;12.90;99.90;;;;;;5041869;28;20037;-66
2023/09/16 07:05:24;;;;;;;1999.90;999.90;;;13.00;99.90;;;;;;5042877;28;20076;-66
2023/09/16 07:07:52;;;;;;;1999.90;999.90;;;13.10;99.90;;;;;;5052188;28;20397;-66
2023/09/16 07:10:19;;;;;;;1999.90;999.90;;;13.20;99.90;;;;;;5060887;28;20056;-66
2023/09/16 07:12:44;;;;;;;1999.90;999.90;;;13.30;99.90;;;;;;5035617;28;20037;-66
2023/09/16 07:15:10;;;;;;;1999.90;999.90;;;13.40;99.90;;;;;;5054535;28;20451;-66
2023/09/16 07:17:36;;;;;;;1999.90;999.90;;;13.60;99.90;;;;;;5048270;28;20041;-66
2023/09/16 07:20:01;;;;;;;1999.90;999.90;;;13.70;99.90;;;;;;5046948;28;20078;-66
2023/09/16 07:22:27;;;;;;;1999.90;999.90;;;13.80;99.90;;;;;;5042102;28;20033;-66
2023/09/16 07:24:53;;;;;;;1999.90;999.90;;;13.90;99.90;;;;;;5050628;28;20033;-67
2023/09/16 07:27:18;;;;;;;1999.90;999.90;;;14.10;99.90;;;;;;5047346;28;20489;-66
2023/09/16 07:29:44;;;;;;;1999.90;999.90;;;14.20;99.90;;;;;;5032486;28;20043;-67
2023/09/16 07:32:09;;;;;;;1999.90;999.90;;;14.30;99.90;;;;;;5035675;28;20049;-67
2023/09/16 07:34:35;;;;;;;1999.90;999.90;;;14.40;99.90;;;;;;5058357;28;20052;-66
2023/09/16 07:37:03;;;;;;;1999.90;999.90;;;14.60;99.90;;;;;;5045166;28;20041;-66
2023/09/16 07:39:29;;;;;;;1999.90;999.90;;;14.70;99.90;;;;;;5031040;28;20060;-67
2023/09/16 07:41:55;;;;;;;1999.90;999.90;;;14.80;99.90;;;;;;5035451;28;20120;-66
2023/09/16 07:44:21;;;;;;;1999.90;999.90;;;15.00;99.90;;;;;;5025410;28;20196;-67
2023/09/16 07:46:48;;;;;;;1999.90;999.90;;;15.10;99.90;;;;;;5044896;28;20032;-67
2023/09/16 07:49:15;;;;;;;1999.90;999.90;;;15.30;99.90;;;;;;5043910;28;20036;-67
2023/09/16 07:51:40;;;;;;;1999.90;999.90;;;15.40;99.90;;;;;;5051329;28;20075;-67
2023/09/16 07:54:09;;;;;;;1999.90;999.90;;;15.50;99.90;;;;;;5035906;28;20572;-66
2023/09/16 07:56:34;;;;;;;1999.90;999.90;;;15.60;99.90;;;;;;5039535;28;20041;-67
2023/09/16 07:59:00;;;;;;;1999.90;999.90;;;15.70;99.90;;;;;;5049442;28;20091;-67
2023/09/16 08:01:26;;;;;;;1999.90;999.90;;;15.80;99.90;;;;;;5047502;28;20083;-67
2023/09/16 08:03:52;;;;;;;1999.90;999.90;;;15.90;99.90;;;;;;5038323;28;20098;-67
2023/09/16 08:06:17;;;;;;;1999.90;999.90;;;16.00;99.90;;;;;;5054479;28;20445;-67
2023/09/16 08:08:43;;;;;;;1999.90;999.90;;;16.20;99.90;;;;;;5055546;28;20101;-66
2023/09/16 08:11:09;;;;;;;1999.90;999.90;;;16.30;99.90;;;;;;5048155;28;20045;-66
2023/09/16 08:13:34;;;;;;;1999.90;999.90;;;16.60;99.90;;;;;;5050841;28;20419;-66
2023/09/16 08:16:01;;;;;;;1999.90;999.90;;;16.80;99.90;;;;;;5052768;28;20095;-66
2023/09/16 08:18:26;;;;;;;1999.90;999.90;;;16.80;99.90;;;;;;5059087;28;20555;-66
2023/09/16 08:20:53;;;;;;;1999.90;999.90;;;16.90;99.90;;;;;;5056239;28;20045;-67
2023/09/16 08:23:18;;;;;;;1999.90;999.90;;;17.00;99.90;;;;;;5037531;28;20508;-67
2023/09/16 08:25:45;;;;;;;1999.90;999.90;;;17.10;99.90;;;;;;5054984;28;20029;-67
2023/09/16 08:28:11;;;;;;;1999.90;999.90;;;17.30;99.90;;;;;;5045936;28;20049;-67
2023/09/16 08:30:36;;;;;;;1999.90;999.90;;;17.50;99.90;;;;;;5042208;28;20078;-66
2023/09/16 08:33:02;;;;;;;1999.90;999.90;;;17.70;99.90;;;;;;5055656;28;20128;-67
2023/09/16 08:35:28;;;;;;;1999.90;999.90;;;18.00;99.90;;;;;;5046147;28;20049;-67
2023/09/16 08:37:58;;;;;;;1999.90;999.90;;;18.30;99.90;;;;;;5050256;28;20041;-67
2023/09/16 08:40:25;;;;;;;1999.90;999.90;;;18.50;99.90;;;;;;5059808;28;20260;-67
2023/09/16 08:43:09;;;;;;;1999.90;999.90;;;18.60;99.90;;;;;;5062286;28;20147;-67
2023/09/16 08:45:41;;;;;;;1999.90;999.90;;;18.70;99.90;;;;;;5043280;28;20044;-67
2023/09/16 08:48:12;;;;;;;1999.90;999.90;;;18.90;99.90;;;;;;5059281;28;20044;-67
2023/09/16 08:50:39;;;;;;;1999.90;999.90;;;19.10;99.90;;;;;;5052088;28;20080;-67
2023/09/16 08:53:10;;;;;;;1999.90;999.90;;;19.40;99.90;;;;;;5032168;28;20052;-67
2023/09/16 08:55:36;;;;;;;1999.90;999.90;;;19.90;99.90;;;;;;5050367;28;20171;-67
2023/09/16 08:58:08;;;;;;;1999.90;999.90;;;20.70;99.90;;;;;;5047529;28;20040;-67
2023/09/16 09:00:35;;;;;;;533.45;504.98;;;21.40;99.90;;;;;;5054112;28;20045;-67
2023/09/16 09:03:01;;;;;;;436.27;414.15;;;21.90;99.90;;;;;;5057395;28;20497;-67
2023/09/16 09:05:28;;;;;;;509.65;483.15;;;22.40;99.90;;;;;;5056442;28;20053;-67
2023/09/16 09:07:54;;;;;;;520.97;493.67;;;22.60;99.90;;;;;;5058184;28;20120;-67
2023/09/16 09:10:20;;;;;;;498.95;473.30;;;22.70;99.90;;;;;;5057162;28;20128;-67
2023/09/16 09:12:45;;;;;;;532.38;503.88;;;23.00;99.90;;;;;;5058803;28;20365;-66
2023/09/16 09:15:14;;;;;;;564.30;532.97;;;23.20;99.90;;;;;;5063330;28;20044;-67
2023/09/16 09:17:46;;;;;;;539.08;510.27;;;23.40;99.90;;;;;;5061282;28;20051;-67
2023/09/16 09:20:15;;;;;;;501.00;474.98;;;23.60;99.90;;;;;;5060228;28;20052;-67
2023/09/16 09:22:42;;;;;;;469.45;444.75;;;23.60;99.90;;;;;;5048498;28;20049;-67
2023/09/16 09:25:08;;;;;;;559.10;528.40;;;23.80;99.90;;;;;;5041812;28;20036;-67
2023/09/16 09:27:34;;;;;;;557.70;527.05;;;23.90;99.90;;;;;;5034161;28;20393;-67
2023/09/16 09:30:00;;;;;;;429.92;408.33;;;23.80;99.90;;;;;;5054817;28;20477;-67
2023/09/16 09:32:32;;;;;;;497.98;471.75;;;23.70;99.90;;;;;;5059967;28;20095;-67
2023/09/16 09:35:04;;;;;;;291.55;277.98;;;23.80;99.90;;;;;;5063342;28;20580;-67
2023/09/16 09:37:30;;;;;;;387.70;368.55;;;23.70;99.90;;;;;;5055808;28;20037;-67
2023/09/16 09:40:12;;;;;;;369.48;351.88;;;23.80;99.90;;;;;;5057344;28;20048;-67
2023/09/16 09:42:43;;;;;;;318.65;304.27;;;23.90;99.90;;;;;;5061754;28;20048;-67
2023/09/16 09:45:10;;;;;;;296.65;283.27;;;23.90;99.90;;;;;;5050487;28;20041;-67
2023/09/16 09:47:37;;;;;;;268.13;256.27;;;23.90;99.90;;;;;;5044752;28;20139;-67
2023/09/16 09:50:04;;;;;;;249.73;238.85;;;24.00;99.90;;;;;;5031207;28;20048;-67
2023/09/16 09:52:31;;;;;;;199.80;191.20;;;24.10;99.90;;;;;;5051574;28;20111;-67
2023/09/16 09:54:57;;;;;;;184.05;175.68;;;24.10;99.90;;;;;;5063883;28;20040;-67
2023/09/16 09:57:23;;;;;;;106.93;102.07;;;24.20;99.90;;;;;;5051300;28;20392;-67
2023/09/16 09:59:49;;;;;;;115.85;110.85;;;24.30;99.90;;;;;;5033896;28;20135;-67
2023/09/16 10:02:15;;;;;;;74.55;70.97;;;24.40;99.90;;;;;;5052022;28;20040;-67
2023/09/16 10:04:41;;;;;;;69.00;65.80;;;24.40;99.90;;;;;;5052196;28;20041;-67
2023/09/16 10:07:07;;;;;;;42.97;40.60;;;24.50;99.90;;;;;;5064052;28;20618;-67
2023/09/16 10:09:33;;;;;;;53.47;50.88;;;24.60;99.90;;;;;;5039260;28;20049;-67
2023/09/16 10:12:00;;;;;;;35.30;33.35;;;24.60;99.90;;;;;;5055632;28;20036;-67
2023/09/16 10:14:26;;;;;;;52.03;49.33;;;24.70;99.90;;;;;;5050947;28;20048;-67
2023/09/16 10:16:52;;;;;;;38.92;36.80;;;24.60;99.90;;;;;;5046702;28;20043;-67
2023/09/16 10:19:20;;;;;;;65.32;62.30;;;24.60;99.90;;;;;;5067795;28;20120;-67
2023/09/16 10:21:46;;;;;;;55.17;52.42;;;24.60;99.90;;;;;;5055212;28;20041;-67
2023/09/16 10:24:12;;;;;;;44.78;42.45;;;24.70;99.90;;;;;;5053174;28;20052;-67
2023/09/16 10:26:39;;;;;;;40.92;38.78;;;24.80;99.90;;;;;;5039890;28;20049;-67
2023/09/16 10:29:06;;;;;;;53.30;50.80;;;25.00;99.90;;;;;;5039501;28;20036;-67
2023/09/16 10:31:33;;;;;;;43.58;41.28;;;25.10;99.90;;;;;;5057596;28;20052;-67
2023/09/16 10:33:58;;;;;;;37.67;35.67;;;25.30;99.90;;;;;;5033275;28;20049;-67
2023/09/16 10:36:25;;;;;;;38.05;35.95;;;25.40;99.90;;;;;;5060355;28;20055;-67
2023/09/16 10:38:52;;;;;;;42.72;40.53;;;25.40;99.90;;;;;;5065057;28;20040;-67
2023/09/16 10:41:20;;;;;;;34.95;32.75;;;25.30;99.90;;;;;;5058051;28;20162;-67
2023/09/16 10:43:47;;;;;;;42.45;40.15;;;25.30;99.90;;;;;;5052019;28;20051;-67
2023/09/16 10:46:13;;;;;;;39.75;37.55;;;25.50;99.90;;;;;;5064155;28;20146;-67
2023/09/16 10:48:39;;;;;;;33.05;31.10;;;25.60;99.90;;;;;;5051002;28;20044;-67
2023/09/16 10:51:08;;;;;;;44.47;41.97;;;25.60;99.90;;;;;;5042863;28;20501;-67
2023/09/16 10:53:36;;;;;;;38.33;36.15;;;25.80;99.90;;;;;;5054750;28;20068;-67
2023/09/16 10:56:05;;;;;;;41.22;38.88;;;26.00;99.90;;;;;;5049376;28;20045;-67
2023/09/16 10:58:42;;;;;;;35.88;33.78;;;26.20;99.90;;;;;;5056128;28;20132;-67
2023/09/16 11:01:10;;;;;;;40.53;37.97;;;26.30;99.90;;;;;;5060857;28;20405;-67
2023/09/16 11:03:41;;;;;;;27.33;25.63;;;26.40;99.90;;;;;;5057722;28;20045;-67
2023/09/16 11:06:07;;;;;;;32.75;30.75;;;26.40;99.90;;;;;;5056135;28;20087;-67
2023/09/16 11:08:33;;;;;;;25.23;23.52;;;26.30;99.90;;;;;;5046173;28;20649;-67
2023/09/16 11:10:59;;;;;;;22.83;21.30;;;26.30;99.90;;;;;;5067158;28;20097;-67
2023/09/16 11:13:26;;;;;;;26.70;25.08;;;26.30;99.90;;;;;;5046533;28;20040;-67
2023/09/16 11:15:52;;;;;;;23.65;21.98;;;26.30;99.90;;;;;;5061885;28;20055;-67
2023/09/16 11:18:18;;;;;;;39.45;37.22;;;26.40;99.90;;;;;;5048550;28;20051;-67
2023/09/16 11:20:45;;;;;;;29.05;27.38;;;26.60;99.90;;;;;;5041839;28;20056;-67
2023/09/16 11:23:12;;;;;;;22.15;20.70;;;26.70;99.90;;;;;;5054801;28;20056;-67
2023/09/16 11:25:40;;;;;;;20.45;19.02;;;26.60;99.90;;;;;;5054590;28;20041;-67
2023/09/16 11:28:11;;;;;;;20.02;18.63;;;26.60;99.90;;;;;;5054239;28;20048;-67
2023/09/16 11:30:39;;;;;;;25.27;23.73;;;26.70;99.60;;;;;;5047124;28;20374;-67
2023/09/16 11:33:24;;;;;;;21.05;19.55;;;26.80;99.90;;;;;;5062030;28;20121;-67
2023/09/16 11:36:14;;;;;;;19.75;18.45;;;26.80;99.10;;;;;;5055973;28;20045;-67
2023/09/16 11:38:57;;;;;;;14.35;13.35;;;26.60;98.20;;;;;;5051192;28;20076;-67
2023/09/16 11:41:24;;;;;;;13.68;12.55;;;26.60;96.80;;;;;;5060234;28;20139;-67
2023/09/16 11:43:51;;;;;;;18.08;16.92;;;26.60;96.60;;;;;;5055982;28;20055;-67
2023/09/16 11:46:16;;;;;;;14.93;13.93;;;26.60;96.30;;;;;;5050116;28;20044;-67
2023/09/16 11:48:53;;;;;;;16.95;15.85;;;26.60;96.80;;;;;;5051405;28;20412;-67
2023/09/16 11:51:23;;;;;;;13.32;12.25;;;26.80;96.30;;;;;;5042654;28;20148;-67
2023/09/16 11:53:50;;;;;;;13.13;12.13;;;26.80;95.70;;;;;;5068149;28;20068;-67
2023/09/16 11:56:17;;;;;;;13.77;12.68;;;26.80;95.10;;;;;;5048820;28;20045;-67
2023/09/16 11:58:44;;;;;;;13.23;12.32;;;26.70;94.80;;;;;;5052823;28;20045;-67
2023/09/16 12:01:19;;;;;;;14.48;13.38;;;26.50;94.20;;;;;;5040781;28;20037;-67